Aviation Digital Data Service (ADDS)

Output produced by METARs form (2259 UTC 21 May 2022)
found at http://www.aviationweather.gov/metar/data/
 
TAF KVBG 212200Z 2122/2304 32010G15KT 9999 SKC QNH2992INS 
     BECMG 2203/2204 29009KT 4800 BR SCT005 BKN010 QNH2995INS 
     BECMG 2207/2208 05006KT 2400 BR BKN005 QNH2998INS 
     BECMG 2210/2211 VRB06KT 0800 FG VV002 QNH3000INS 
     BECMG 2215/2216 27008KT 2400 BR SCT003 BKN005 QNH3002INS 
     BECMG 2217/2218 27008KT 4800 BR FEW003 SCT005 QNH3003INS 
     BECMG 2220/2221 29010G15KT 9999 NSW SKC QNH2998INS 
     BECMG 2300/2301 33009KT 4800 BR SCT005 BKN010 QNH2996INS 
     BECMG 2303/2304 35006KT 2400 BR BKN005 QNH2995INS TX16/2122Z TN08/2213Z
LAST NO AMDS AFT 2203 NEXT 2214
       
KVCT 211720Z 2118/2218 15018G24KT P6SM SKC 
     FM220200 10012KT P6SM SCT020 BKN035 
     FM220500 03011KT P6SM VCSH BKN015 
     TEMPO 2205/2209 4SM TSRA BKN015CB 
     FM220900 02013KT 4SM TSRA BKN011CB
       
KVEL 211738Z 2118/2218 08010G20KT P6SM FEW100 FEW250 
     FM212000 11009KT P6SM FEW120 FEW250 
     FM212300 14008KT P6SM FEW120 FEW250 
     FM220200 27008KT P6SM FEW180 FEW250 
     FM221200 28008KT P6SM FEW100 FEW250
       
KVGT 211739Z 2118/2218 VRB04KT P6SM SKC 
     FM212100 10006KT P6SM FEW250 
     FM220500 33005KT P6SM FEW250
       
KVIS 211720Z 2118/2218 VRB03KT P6SM SKC
       
KVLD 211728Z 2118/2218 13005KT 2SM TSRA SCT025CB BKN040 
     FM211900 20007KT P6SM VCTS SCT030CB BKN050 
     FM220000 15003KT P6SM SCT050 
     FM221200 22007KT P6SM SCT050
       
KVNY 211741Z 2118/2218 08007KT P6SM SCT024 
     FM212000 16008KT P6SM SCT035 
     FM220200 VRB03KT P6SM SKC 
     FM220900 VRB03KT P6SM BKN009 BKN020
       
TAF KVPS 211700Z 2117/2223 19012G18KT 9999 VCSH SCT015 BKN025 BKN200 QNH3000INS 
     TEMPO 2117/2122 16015G25KT 9000 -SHRA BKN015 BKN025 
     BECMG 2121/2122 15011KT 9999 NSW SCT020 BKN030 BKN120 QNH2998INS 
     BECMG 2203/2204 15009KT 9999 FEW007 BKN015 BKN030 QNH3006INS 
     BECMG 2214/2215 13009KT 9999 SCT015 BKN030 QNH3009INS 
     BECMG 2216/2217 15012G18KT 9999 -SHRA VCTS SCT020 BKN030CB OVC090
QNH3004INS 
     TEMPO 2217/2222 8000 -TSRA BKN020 OVC030CB TX29/2119Z TN25/2213Z
       
KVQQ 212018Z 2120/2218 18009G15KT P6SM VCTS SCT020 BKN030CB BKN090 
     TEMPO 2120/2122 VRB15G30KT 2SM +TSRA BR BKN015 BKN025CB OVC070 
     FM212200 VRB05KT 5SM TSRA BR SCT015 BKN025CB OVC050 
     FM220100 18005KT P6SM VCSH BKN050 BKN250 
     FM220500 00000KT P6SM SCT090 BKN200 
     FM221400 24004KT P6SM SCT020 BKN200
       
KVRB 212213Z 2122/2218 13012KT P6SM SCT040 OVC100 
     FM220000 12006KT P6SM SCT250 
     FM221500 13010KT P6SM SCT035 SCT250
       
KVTN 212211Z 2122/2218 30013G20KT P6SM VCSH SCT040 BKN070 OVC110 
     FM220400 33003KT P6SM FEW250 
     FM221500 20007KT P6SM FEW250